sensor_id;sensor_type;location;lat;lon;timestamp;P1;durP1;ratioP1;P2;durP2;ratioP2
59907;SDS011;61804;54.926;73.496;2022-12-29T00:00:34;11.50;;;4.13;;
59907;SDS011;61804;54.926;73.496;2022-12-29T00:03:02;3.08;;;2.13;;
59907;SDS011;61804;54.926;73.496;2022-12-29T00:05:30;3.75;;;2.53;;
59907;SDS011;61804;54.926;73.496;2022-12-29T00:07:57;8.07;;;2.97;;
59907;SDS011;61804;54.926;73.496;2022-12-29T00:10:26;3.22;;;2.88;;
59907;SDS011;61804;54.926;73.496;2022-12-29T00:13:04;5.57;;;3.60;;
59907;SDS011;61804;54.926;73.496;2022-12-29T00:15:51;5.97;;;2.35;;
59907;SDS011;61804;54.926;73.496;2022-12-29T00:18:18;4.82;;;2.33;;
59907;SDS011;61804;54.926;73.496;2022-12-29T00:20:47;4.05;;;3.63;;
59907;SDS011;61804;54.926;73.496;2022-12-29T00:23:33;10.30;;;3.83;;
59907;SDS011;61804;54.926;73.496;2022-12-29T00:26:19;2.53;;;2.33;;
59907;SDS011;61804;54.926;73.496;2022-12-29T00:29:11;4.38;;;2.13;;
59907;SDS011;61804;54.926;73.496;2022-12-29T00:32:02;3.97;;;2.17;;
59907;SDS011;61804;54.926;73.496;2022-12-29T00:34:59;4.72;;;2.63;;
59907;SDS011;61804;54.926;73.496;2022-12-29T00:37:43;3.25;;;1.92;;
59907;SDS011;61804;54.926;73.496;2022-12-29T00:40:42;3.58;;;2.38;;
59907;SDS011;61804;54.926;73.496;2022-12-29T00:43:40;5.55;;;1.77;;
59907;SDS011;61804;54.926;73.496;2022-12-29T00:46:26;5.13;;;3.05;;
59907;SDS011;61804;54.926;73.496;2022-12-29T00:48:55;4.03;;;2.88;;
59907;SDS011;61804;54.926;73.496;2022-12-29T00:51:41;4.78;;;3.20;;
59907;SDS011;61804;54.926;73.496;2022-12-29T00:54:08;5.13;;;2.60;;
59907;SDS011;61804;54.926;73.496;2022-12-29T00:56:36;7.35;;;3.72;;
59907;SDS011;61804;54.926;73.496;2022-12-29T00:59:05;3.92;;;2.65;;
59907;SDS011;61804;54.926;73.496;2022-12-29T01:01:33;3.92;;;2.83;;
59907;SDS011;61804;54.926;73.496;2022-12-29T01:04:11;4.65;;;1.92;;
59907;SDS011;61804;54.926;73.496;2022-12-29T01:06:39;2.78;;;2.38;;
59907;SDS011;61804;54.926;73.496;2022-12-29T01:09:08;5.22;;;3.40;;
59907;SDS011;61804;54.926;73.496;2022-12-29T01:11:54;4.57;;;2.70;;
59907;SDS011;61804;54.926;73.496;2022-12-29T01:14:26;4.28;;;2.90;;
59907;SDS011;61804;54.926;73.496;2022-12-29T01:16:55;3.80;;;3.05;;
59907;SDS011;61804;54.926;73.496;2022-12-29T01:19:22;3.70;;;1.73;;
59907;SDS011;61804;54.926;73.496;2022-12-29T01:21:50;3.33;;;2.72;;
59907;SDS011;61804;54.926;73.496;2022-12-29T01:24:19;2.15;;;1.33;;
59907;SDS011;61804;54.926;73.496;2022-12-29T01:26:47;1.92;;;1.60;;
59907;SDS011;61804;54.926;73.496;2022-12-29T01:29:17;2.63;;;2.00;;
59907;SDS011;61804;54.926;73.496;2022-12-29T01:31:45;2.38;;;1.70;;
59907;SDS011;61804;54.926;73.496;2022-12-29T01:34:13;5.78;;;3.00;;
59907;SDS011;61804;54.926;73.496;2022-12-29T01:36:46;6.25;;;4.35;;
59907;SDS011;61804;54.926;73.496;2022-12-29T01:39:13;5.22;;;2.97;;
59907;SDS011;61804;54.926;73.496;2022-12-29T01:41:42;2.55;;;2.30;;
59907;SDS011;61804;54.926;73.496;2022-12-29T01:47:06;2.25;;;1.77;;
59907;SDS011;61804;54.926;73.496;2022-12-29T01:49:35;16.50;;;6.95;;
59907;SDS011;61804;54.926;73.496;2022-12-29T01:52:07;7.07;;;4.85;;
59907;SDS011;61804;54.926;73.496;2022-12-29T01:54:40;3.33;;;1.92;;
59907;SDS011;61804;54.926;73.496;2022-12-29T01:57:10;5.55;;;3.08;;
59907;SDS011;61804;54.926;73.496;2022-12-29T01:59:46;6.35;;;3.47;;
59907;SDS011;61804;54.926;73.496;2022-12-29T02:02:15;7.13;;;4.82;;
59907;SDS011;61804;54.926;73.496;2022-12-29T02:04:43;6.80;;;4.85;;
59907;SDS011;61804;54.926;73.496;2022-12-29T02:07:19;16.27;;;9.55;;
59907;SDS011;61804;54.926;73.496;2022-12-29T02:09:47;11.02;;;7.05;;
59907;SDS011;61804;54.926;73.496;2022-12-29T02:12:16;6.40;;;5.65;;
59907;SDS011;61804;54.926;73.496;2022-12-29T02:14:45;11.07;;;6.72;;
59907;SDS011;61804;54.926;73.496;2022-12-29T02:25:27;7.20;;;5.97;;
59907;SDS011;61804;54.926;73.496;2022-12-29T02:35:52;16.98;;;11.02;;
59907;SDS011;61804;54.926;73.496;2022-12-29T02:40:57;6.38;;;3.35;;
59907;SDS011;61804;54.926;73.496;2022-12-29T02:46:13;4.82;;;3.05;;
59907;SDS011;61804;54.926;73.496;2022-12-29T02:51:39;7.60;;;5.13;;
59907;SDS011;61804;54.926;73.496;2022-12-29T02:54:08;4.65;;;3.95;;
59907;SDS011;61804;54.926;73.496;2022-12-29T02:56:58;4.07;;;3.08;;
59907;SDS011;61804;54.926;73.496;2022-12-29T02:59:25;5.32;;;4.13;;
59907;SDS011;61804;54.926;73.496;2022-12-29T03:15:27;7.78;;;5.03;;
59907;SDS011;61804;54.926;73.496;2022-12-29T03:18:25;8.88;;;4.32;;
59907;SDS011;61804;54.926;73.496;2022-12-29T03:20:57;17.17;;;10.80;;
59907;SDS011;61804;54.926;73.496;2022-12-29T03:23:27;10.90;;;9.75;;
59907;SDS011;61804;54.926;73.496;2022-12-29T03:26:01;10.52;;;9.07;;
59907;SDS011;61804;54.926;73.496;2022-12-29T03:28:37;10.82;;;6.03;;
59907;SDS011;61804;54.926;73.496;2022-12-29T03:31:06;8.63;;;4.72;;
59907;SDS011;61804;54.926;73.496;2022-12-29T03:33:44;16.15;;;10.77;;
59907;SDS011;61804;54.926;73.496;2022-12-29T03:36:16;6.65;;;5.82;;
59907;SDS011;61804;54.926;73.496;2022-12-29T03:38:55;9.98;;;5.75;;
59907;SDS011;61804;54.926;73.496;2022-12-29T03:41:30;5.35;;;3.38;;
59907;SDS011;61804;54.926;73.496;2022-12-29T03:44:06;3.22;;;2.58;;
59907;SDS011;61804;54.926;73.496;2022-12-29T03:46:34;3.53;;;1.52;;
59907;SDS011;61804;54.926;73.496;2022-12-29T03:49:02;5.82;;;2.28;;
59907;SDS011;61804;54.926;73.496;2022-12-29T03:51:30;3.33;;;2.08;;
59907;SDS011;61804;54.926;73.496;2022-12-29T03:53:57;6.10;;;3.63;;
59907;SDS011;61804;54.926;73.496;2022-12-29T03:56:25;3.53;;;2.83;;
59907;SDS011;61804;54.926;73.496;2022-12-29T03:58:53;2.67;;;2.35;;
59907;SDS011;61804;54.926;73.496;2022-12-29T04:01:39;2.88;;;2.00;;
59907;SDS011;61804;54.926;73.496;2022-12-29T04:04:07;2.50;;;2.28;;
59907;SDS011;61804;54.926;73.496;2022-12-29T04:06:35;2.40;;;1.98;;
59907;SDS011;61804;54.926;73.496;2022-12-29T04:09:06;3.25;;;2.50;;
59907;SDS011;61804;54.926;73.496;2022-12-29T04:11:49;1.90;;;1.25;;
59907;SDS011;61804;54.926;73.496;2022-12-29T04:14:17;2.80;;;1.90;;
59907;SDS011;61804;54.926;73.496;2022-12-29T04:16:45;2.55;;;1.50;;
59907;SDS011;61804;54.926;73.496;2022-12-29T04:19:23;3.92;;;2.53;;
59907;SDS011;61804;54.926;73.496;2022-12-29T04:21:56;6.40;;;4.15;;
59907;SDS011;61804;54.926;73.496;2022-12-29T04:24:24;5.90;;;2.90;;
59907;SDS011;61804;54.926;73.496;2022-12-29T04:26:51;3.33;;;2.55;;
59907;SDS011;61804;54.926;73.496;2022-12-29T04:29:33;2.65;;;2.40;;
59907;SDS011;61804;54.926;73.496;2022-12-29T04:32:09;3.20;;;1.40;;
59907;SDS011;61804;54.926;73.496;2022-12-29T04:34:42;2.95;;;2.15;;
59907;SDS011;61804;54.926;73.496;2022-12-29T04:37:09;9.25;;;4.15;;
59907;SDS011;61804;54.926;73.496;2022-12-29T04:39:37;5.82;;;3.58;;
59907;SDS011;61804;54.926;73.496;2022-12-29T04:42:07;5.68;;;3.13;;
59907;SDS011;61804;54.926;73.496;2022-12-29T04:44:35;2.10;;;1.85;;
59907;SDS011;61804;54.926;73.496;2022-12-29T04:47:22;6.53;;;2.65;;
59907;SDS011;61804;54.926;73.496;2022-12-29T04:50:02;7.50;;;4.10;;
59907;SDS011;61804;54.926;73.496;2022-12-29T04:52:42;2.78;;;2.25;;
59907;SDS011;61804;54.926;73.496;2022-12-29T04:55:17;3.30;;;2.40;;
59907;SDS011;61804;54.926;73.496;2022-12-29T04:57:45;3.80;;;2.92;;
59907;SDS011;61804;54.926;73.496;2022-12-29T05:00:17;5.32;;;2.83;;
59907;SDS011;61804;54.926;73.496;2022-12-29T05:02:45;4.65;;;2.08;;
59907;SDS011;61804;54.926;73.496;2022-12-29T05:05:14;2.95;;;2.17;;
59907;SDS011;61804;54.926;73.496;2022-12-29T05:07:48;7.75;;;4.53;;
59907;SDS011;61804;54.926;73.496;2022-12-29T05:10:16;3.13;;;2.30;;
59907;SDS011;61804;54.926;73.496;2022-12-29T05:12:46;1.58;;;1.20;;
59907;SDS011;61804;54.926;73.496;2022-12-29T05:15:14;2.65;;;2.45;;
59907;SDS011;61804;54.926;73.496;2022-12-29T05:17:48;3.75;;;2.60;;
59907;SDS011;61804;54.926;73.496;2022-12-29T05:20:18;4.13;;;1.80;;
59907;SDS011;61804;54.926;73.496;2022-12-29T05:22:46;3.38;;;1.75;;
59907;SDS011;61804;54.926;73.496;2022-12-29T05:25:14;2.97;;;2.25;;
59907;SDS011;61804;54.926;73.496;2022-12-29T05:27:55;3.60;;;2.35;;
59907;SDS011;61804;54.926;73.496;2022-12-29T05:30:50;1.17;;;1.08;;
59907;SDS011;61804;54.926;73.496;2022-12-29T05:33:19;3.72;;;3.15;;
59907;SDS011;61804;54.926;73.496;2022-12-29T05:35:49;4.00;;;2.20;;
59907;SDS011;61804;54.926;73.496;2022-12-29T05:38:17;3.78;;;2.63;;
59907;SDS011;61804;54.926;73.496;2022-12-29T05:40:45;12.45;;;5.07;;
59907;SDS011;61804;54.926;73.496;2022-12-29T05:43:45;6.35;;;5.60;;
59907;SDS011;61804;54.926;73.496;2022-12-29T05:46:35;8.30;;;6.80;;
59907;SDS011;61804;54.926;73.496;2022-12-29T05:49:26;18.67;;;8.40;;
59907;SDS011;61804;54.926;73.496;2022-12-29T05:52:08;8.32;;;6.03;;
59907;SDS011;61804;54.926;73.496;2022-12-29T05:54:42;8.27;;;4.75;;
59907;SDS011;61804;54.926;73.496;2022-12-29T05:57:13;7.38;;;4.53;;
59907;SDS011;61804;54.926;73.496;2022-12-29T05:59:43;3.90;;;2.28;;
59907;SDS011;61804;54.926;73.496;2022-12-29T06:02:11;1.80;;;1.70;;
59907;SDS011;61804;54.926;73.496;2022-12-29T06:04:38;5.50;;;4.93;;
59907;SDS011;61804;54.926;73.496;2022-12-29T06:07:10;8.52;;;7.03;;
59907;SDS011;61804;54.926;73.496;2022-12-29T06:09:43;6.22;;;5.15;;
59907;SDS011;61804;54.926;73.496;2022-12-29T06:12:21;7.00;;;4.45;;
59907;SDS011;61804;54.926;73.496;2022-12-29T06:14:52;4.93;;;3.65;;
59907;SDS011;61804;54.926;73.496;2022-12-29T06:17:19;11.07;;;4.95;;
59907;SDS011;61804;54.926;73.496;2022-12-29T06:19:51;17.35;;;5.40;;
59907;SDS011;61804;54.926;73.496;2022-12-29T06:22:32;8.55;;;5.82;;
59907;SDS011;61804;54.926;73.496;2022-12-29T06:25:00;7.00;;;5.45;;
59907;SDS011;61804;54.926;73.496;2022-12-29T06:27:28;10.80;;;5.05;;
59907;SDS011;61804;54.926;73.496;2022-12-29T06:29:56;3.60;;;2.92;;
59907;SDS011;61804;54.926;73.496;2022-12-29T06:32:23;2.03;;;1.73;;
59907;SDS011;61804;54.926;73.496;2022-12-29T06:34:59;4.53;;;3.58;;
59907;SDS011;61804;54.926;73.496;2022-12-29T06:37:27;13.77;;;7.85;;
59907;SDS011;61804;54.926;73.496;2022-12-29T06:39:54;16.77;;;9.18;;
59907;SDS011;61804;54.926;73.496;2022-12-29T06:42:26;13.70;;;7.68;;
59907;SDS011;61804;54.926;73.496;2022-12-29T06:45:19;5.80;;;5.20;;
59907;SDS011;61804;54.926;73.496;2022-12-29T06:47:46;10.32;;;4.90;;
59907;SDS011;61804;54.926;73.496;2022-12-29T06:50:18;12.30;;;10.90;;
59907;SDS011;61804;54.926;73.496;2022-12-29T06:52:45;6.93;;;6.03;;
59907;SDS011;61804;54.926;73.496;2022-12-29T06:55:23;8.57;;;7.07;;
59907;SDS011;61804;54.926;73.496;2022-12-29T06:57:53;7.20;;;4.47;;
59907;SDS011;61804;54.926;73.496;2022-12-29T07:00:21;7.25;;;5.50;;
59907;SDS011;61804;54.926;73.496;2022-12-29T07:02:49;8.95;;;6.35;;
59907;SDS011;61804;54.926;73.496;2022-12-29T07:05:19;4.50;;;3.45;;
59907;SDS011;61804;54.926;73.496;2022-12-29T07:10:19;3.33;;;3.03;;
59907;SDS011;61804;54.926;73.496;2022-12-29T07:12:47;4.70;;;2.75;;
59907;SDS011;61804;54.926;73.496;2022-12-29T07:15:14;6.28;;;4.63;;
59907;SDS011;61804;54.926;73.496;2022-12-29T07:17:42;4.20;;;3.80;;
59907;SDS011;61804;54.926;73.496;2022-12-29T07:20:10;71.28;;;45.70;;
59907;SDS011;61804;54.926;73.496;2022-12-29T07:22:48;4.72;;;4.13;;
59907;SDS011;61804;54.926;73.496;2022-12-29T07:25:16;3.72;;;2.15;;
59907;SDS011;61804;54.926;73.496;2022-12-29T07:27:44;5.43;;;4.75;;
59907;SDS011;61804;54.926;73.496;2022-12-29T07:30:11;7.15;;;4.95;;
59907;SDS011;61804;54.926;73.496;2022-12-29T07:32:39;2.72;;;1.90;;
59907;SDS011;61804;54.926;73.496;2022-12-29T07:35:07;2.67;;;2.25;;
59907;SDS011;61804;54.926;73.496;2022-12-29T07:37:35;1.58;;;1.48;;
59907;SDS011;61804;54.926;73.496;2022-12-29T07:40:02;2.53;;;2.28;;
59907;SDS011;61804;54.926;73.496;2022-12-29T07:42:30;6.90;;;2.55;;
59907;SDS011;61804;54.926;73.496;2022-12-29T07:45:00;5.90;;;4.22;;
59907;SDS011;61804;54.926;73.496;2022-12-29T07:47:37;4.78;;;2.83;;
59907;SDS011;61804;54.926;73.496;2022-12-29T07:50:05;3.63;;;2.75;;
59907;SDS011;61804;54.926;73.496;2022-12-29T07:52:32;54.47;;;33.60;;
59907;SDS011;61804;54.926;73.496;2022-12-29T07:55:05;4.28;;;2.95;;
59907;SDS011;61804;54.926;73.496;2022-12-29T07:57:32;7.65;;;4.25;;
59907;SDS011;61804;54.926;73.496;2022-12-29T08:00:05;6.10;;;4.93;;
59907;SDS011;61804;54.926;73.496;2022-12-29T08:02:38;7.97;;;3.92;;
59907;SDS011;61804;54.926;73.496;2022-12-29T08:05:07;5.95;;;4.43;;
59907;SDS011;61804;54.926;73.496;2022-12-29T08:07:37;3.30;;;2.47;;
59907;SDS011;61804;54.926;73.496;2022-12-29T08:10:14;3.97;;;2.78;;
59907;SDS011;61804;54.926;73.496;2022-12-29T08:12:42;5.28;;;3.47;;
59907;SDS011;61804;54.926;73.496;2022-12-29T08:15:11;5.05;;;4.55;;
59907;SDS011;61804;54.926;73.496;2022-12-29T08:17:39;3.83;;;3.53;;
59907;SDS011;61804;54.926;73.496;2022-12-29T08:20:07;8.50;;;4.68;;
59907;SDS011;61804;54.926;73.496;2022-12-29T08:22:35;6.38;;;5.53;;
59907;SDS011;61804;54.926;73.496;2022-12-29T08:25:04;5.97;;;4.88;;
59907;SDS011;61804;54.926;73.496;2022-12-29T08:27:32;3.03;;;2.78;;
59907;SDS011;61804;54.926;73.496;2022-12-29T08:29:59;4.97;;;4.20;;
59907;SDS011;61804;54.926;73.496;2022-12-29T08:32:27;7.30;;;5.68;;
59907;SDS011;61804;54.926;73.496;2022-12-29T08:34:58;11.65;;;10.65;;
59907;SDS011;61804;54.926;73.496;2022-12-29T08:37:25;6.70;;;4.95;;
59907;SDS011;61804;54.926;73.496;2022-12-29T08:39:56;10.57;;;6.18;;
59907;SDS011;61804;54.926;73.496;2022-12-29T08:42:30;9.73;;;6.70;;
59907;SDS011;61804;54.926;73.496;2022-12-29T08:44:59;5.60;;;3.97;;
59907;SDS011;61804;54.926;73.496;2022-12-29T08:47:27;4.88;;;4.35;;
59907;SDS011;61804;54.926;73.496;2022-12-29T08:49:57;6.05;;;5.03;;
59907;SDS011;61804;54.926;73.496;2022-12-29T08:52:24;6.20;;;5.60;;
59907;SDS011;61804;54.926;73.496;2022-12-29T08:54:51;5.95;;;5.00;;
59907;SDS011;61804;54.926;73.496;2022-12-29T08:57:20;7.65;;;6.40;;
59907;SDS011;61804;54.926;73.496;2022-12-29T09:00:16;27.33;;;14.20;;
59907;SDS011;61804;54.926;73.496;2022-12-29T09:02:44;18.33;;;14.20;;
59907;SDS011;61804;54.926;73.496;2022-12-29T09:05:13;20.95;;;12.40;;
59907;SDS011;61804;54.926;73.496;2022-12-29T09:07:40;20.48;;;11.93;;
59907;SDS011;61804;54.926;73.496;2022-12-29T09:10:12;20.13;;;9.07;;
59907;SDS011;61804;54.926;73.496;2022-12-29T09:12:40;16.85;;;11.20;;
59907;SDS011;61804;54.926;73.496;2022-12-29T09:15:07;10.93;;;8.88;;
59907;SDS011;61804;54.926;73.496;2022-12-29T09:17:35;12.18;;;8.63;;
59907;SDS011;61804;54.926;73.496;2022-12-29T09:20:11;9.00;;;5.85;;
59907;SDS011;61804;54.926;73.496;2022-12-29T09:22:40;10.00;;;7.90;;
59907;SDS011;61804;54.926;73.496;2022-12-29T09:25:08;12.15;;;8.43;;
59907;SDS011;61804;54.926;73.496;2022-12-29T09:27:36;10.10;;;8.00;;
59907;SDS011;61804;54.926;73.496;2022-12-29T09:30:09;14.57;;;9.15;;
59907;SDS011;61804;54.926;73.496;2022-12-29T09:32:37;10.75;;;9.38;;
59907;SDS011;61804;54.926;73.496;2022-12-29T09:35:15;28.42;;;21.13;;
59907;SDS011;61804;54.926;73.496;2022-12-29T09:37:54;19.38;;;13.07;;
59907;SDS011;61804;54.926;73.496;2022-12-29T09:40:28;17.75;;;11.93;;
59907;SDS011;61804;54.926;73.496;2022-12-29T09:45:54;9.40;;;7.45;;
59907;SDS011;61804;54.926;73.496;2022-12-29T09:48:27;12.23;;;9.80;;
59907;SDS011;61804;54.926;73.496;2022-12-29T09:50:57;12.60;;;5.38;;
59907;SDS011;61804;54.926;73.496;2022-12-29T09:53:28;8.23;;;5.82;;
59907;SDS011;61804;54.926;73.496;2022-12-29T09:55:58;11.18;;;10.07;;
59907;SDS011;61804;54.926;73.496;2022-12-29T10:01:49;26.17;;;23.38;;
59907;SDS011;61804;54.926;73.496;2022-12-29T10:04:20;13.90;;;11.23;;
59907;SDS011;61804;54.926;73.496;2022-12-29T10:06:52;10.48;;;9.38;;
59907;SDS011;61804;54.926;73.496;2022-12-29T10:17:19;16.88;;;12.60;;
59907;SDS011;61804;54.926;73.496;2022-12-29T10:23:02;20.30;;;11.35;;
59907;SDS011;61804;54.926;73.496;2022-12-29T10:25:37;19.42;;;11.55;;
59907;SDS011;61804;54.926;73.496;2022-12-29T10:28:07;19.52;;;11.18;;
59907;SDS011;61804;54.926;73.496;2022-12-29T10:30:37;50.00;;;19.15;;
59907;SDS011;61804;54.926;73.496;2022-12-29T10:33:05;63.13;;;38.65;;
59907;SDS011;61804;54.926;73.496;2022-12-29T10:35:35;70.18;;;42.70;;
59907;SDS011;61804;54.926;73.496;2022-12-29T10:43:45;90.38;;;57.97;;
59907;SDS011;61804;54.926;73.496;2022-12-29T10:46:35;59.95;;;31.63;;
59907;SDS011;61804;54.926;73.496;2022-12-29T10:49:01;94.63;;;55.88;;
59907;SDS011;61804;54.926;73.496;2022-12-29T10:51:35;56.63;;;38.08;;
59907;SDS011;61804;54.926;73.496;2022-12-29T10:54:05;63.50;;;41.80;;
59907;SDS011;61804;54.926;73.496;2022-12-29T10:59:27;62.50;;;36.08;;
59907;SDS011;61804;54.926;73.496;2022-12-29T11:07:20;53.63;;;29.13;;
59907;SDS011;61804;54.926;73.496;2022-12-29T11:12:56;41.25;;;25.90;;
59907;SDS011;61804;54.926;73.496;2022-12-29T11:15:24;60.58;;;34.47;;
59907;SDS011;61804;54.926;73.496;2022-12-29T11:18:01;53.03;;;29.98;;
59907;SDS011;61804;54.926;73.496;2022-12-29T11:20:30;30.73;;;22.15;;
59907;SDS011;61804;54.926;73.496;2022-12-29T11:28:44;31.67;;;20.67;;
59907;SDS011;61804;54.926;73.496;2022-12-29T11:31:17;104.18;;;68.30;;
59907;SDS011;61804;54.926;73.496;2022-12-29T11:33:45;148.48;;;92.93;;
59907;SDS011;61804;54.926;73.496;2022-12-29T11:36:20;155.50;;;98.53;;
59907;SDS011;61804;54.926;73.496;2022-12-29T11:38:49;62.08;;;43.28;;
59907;SDS011;61804;54.926;73.496;2022-12-29T11:41:24;102.30;;;61.60;;
59907;SDS011;61804;54.926;73.496;2022-12-29T11:43:53;120.73;;;74.63;;
59907;SDS011;61804;54.926;73.496;2022-12-29T11:48:53;348.30;;;188.02;;
59907;SDS011;61804;54.926;73.496;2022-12-29T11:51:44;174.35;;;101.38;;
59907;SDS011;61804;54.926;73.496;2022-12-29T11:54:19;116.88;;;67.25;;
59907;SDS011;61804;54.926;73.496;2022-12-29T11:59:34;122.20;;;70.18;;
59907;SDS011;61804;54.926;73.496;2022-12-29T12:02:30;149.90;;;84.00;;
59907;SDS011;61804;54.926;73.496;2022-12-29T12:06:00;209.77;;;123.93;;
59907;SDS011;61804;54.926;73.496;2022-12-29T12:08:05;144.93;;;86.63;;
59907;SDS011;61804;54.926;73.496;2022-12-29T12:13:30;69.47;;;44.10;;
59907;SDS011;61804;54.926;73.496;2022-12-29T12:16:13;127.65;;;78.95;;
59907;SDS011;61804;54.926;73.496;2022-12-29T12:18:48;159.85;;;107.70;;
59907;SDS011;61804;54.926;73.496;2022-12-29T12:21:34;154.13;;;96.15;;
59907;SDS011;61804;54.926;73.496;2022-12-29T12:24:34;117.45;;;74.80;;
59907;SDS011;61804;54.926;73.496;2022-12-29T12:27:12;116.00;;;77.30;;
59907;SDS011;61804;54.926;73.496;2022-12-29T12:29:43;105.43;;;68.53;;
59907;SDS011;61804;54.926;73.496;2022-12-29T12:32:15;115.20;;;77.45;;
59907;SDS011;61804;54.926;73.496;2022-12-29T12:34:48;153.43;;;95.38;;
59907;SDS011;61804;54.926;73.496;2022-12-29T12:45:27;116.80;;;83.60;;
59907;SDS011;61804;54.926;73.496;2022-12-29T12:48:07;131.73;;;85.60;;
59907;SDS011;61804;54.926;73.496;2022-12-29T12:56:11;57.47;;;41.47;;
59907;SDS011;61804;54.926;73.496;2022-12-29T12:58:54;51.08;;;34.33;;
59907;SDS011;61804;54.926;73.496;2022-12-29T13:06:41;47.45;;;27.65;;
59907;SDS011;61804;54.926;73.496;2022-12-29T13:12:02;85.75;;;53.53;;
59907;SDS011;61804;54.926;73.496;2022-12-29T13:14:50;107.57;;;62.80;;
59907;SDS011;61804;54.926;73.496;2022-12-29T13:17:37;112.25;;;61.05;;
59907;SDS011;61804;54.926;73.496;2022-12-29T13:25:39;70.70;;;49.72;;
59907;SDS011;61804;54.926;73.496;2022-12-29T13:36:24;86.13;;;54.35;;
59907;SDS011;61804;54.926;73.496;2022-12-29T13:39:01;32.85;;;21.45;;
59907;SDS011;61804;54.926;73.496;2022-12-29T13:41:33;63.17;;;40.20;;
59907;SDS011;61804;54.926;73.496;2022-12-29T13:44:03;91.70;;;58.78;;
59907;SDS011;61804;54.926;73.496;2022-12-29T13:46:33;269.08;;;169.07;;
59907;SDS011;61804;54.926;73.496;2022-12-29T13:49:15;347.52;;;213.38;;
59907;SDS011;61804;54.926;73.496;2022-12-29T13:51:49;73.90;;;51.67;;
59907;SDS011;61804;54.926;73.496;2022-12-29T13:54:34;63.65;;;45.30;;
59907;SDS011;61804;54.926;73.496;2022-12-29T14:00:01;81.03;;;58.78;;
59907;SDS011;61804;54.926;73.496;2022-12-29T14:07:46;126.80;;;75.70;;
59907;SDS011;61804;54.926;73.496;2022-12-29T14:13:08;127.88;;;78.82;;
59907;SDS011;61804;54.926;73.496;2022-12-29T14:15:56;86.70;;;56.20;;
59907;SDS011;61804;54.926;73.496;2022-12-29T14:18:25;64.78;;;39.05;;
59907;SDS011;61804;54.926;73.496;2022-12-29T14:20:54;93.43;;;35.58;;
59907;SDS011;61804;54.926;73.496;2022-12-29T14:28:46;114.28;;;15.07;;
59907;SDS011;61804;54.926;73.496;2022-12-29T14:36:55;90.50;;;44.28;;
59907;SDS011;61804;54.926;73.496;2022-12-29T14:39:40;51.22;;;11.63;;
59907;SDS011;61804;54.926;73.496;2022-12-29T14:42:19;29.00;;;14.25;;
59907;SDS011;61804;54.926;73.496;2022-12-29T14:45:41;68.38;;;10.75;;
59907;SDS011;61804;54.926;73.496;2022-12-29T14:47:50;130.95;;;66.65;;
59907;SDS011;61804;54.926;73.496;2022-12-29T14:50:34;37.30;;;25.60;;
59907;SDS011;61804;54.926;73.496;2022-12-29T14:53:05;60.80;;;41.20;;
59907;SDS011;61804;54.926;73.496;2022-12-29T14:55:44;43.88;;;22.63;;
59907;SDS011;61804;54.926;73.496;2022-12-29T14:58:30;100.97;;;59.72;;
59907;SDS011;61804;54.926;73.496;2022-12-29T15:00:59;123.90;;;74.13;;
59907;SDS011;61804;54.926;73.496;2022-12-29T15:03:46;27.13;;;16.55;;
59907;SDS011;61804;54.926;73.496;2022-12-29T15:06:17;33.25;;;20.88;;
59907;SDS011;61804;54.926;73.496;2022-12-29T15:14:56;15.93;;;7.15;;
59907;SDS011;61804;54.926;73.496;2022-12-29T15:17:34;21.20;;;11.13;;
59907;SDS011;61804;54.926;73.496;2022-12-29T15:23:02;30.50;;;16.67;;
59907;SDS011;61804;54.926;73.496;2022-12-29T15:25:30;19.48;;;12.00;;
59907;SDS011;61804;54.926;73.496;2022-12-29T15:28:10;21.40;;;11.15;;
59907;SDS011;61804;54.926;73.496;2022-12-29T15:33:23;54.22;;;21.67;;
59907;SDS011;61804;54.926;73.496;2022-12-29T15:35:56;17.37;;;9.97;;
59907;SDS011;61804;54.926;73.496;2022-12-29T15:38:25;14.07;;;7.95;;
59907;SDS011;61804;54.926;73.496;2022-12-29T15:40:54;39.45;;;20.73;;
59907;SDS011;61804;54.926;73.496;2022-12-29T15:45:55;15.02;;;9.57;;
59907;SDS011;61804;54.926;73.496;2022-12-29T15:48:29;52.63;;;9.95;;
59907;SDS011;61804;54.926;73.496;2022-12-29T15:50:57;14.93;;;8.45;;
59907;SDS011;61804;54.926;73.496;2022-12-29T15:53:27;30.73;;;12.73;;
59907;SDS011;61804;54.926;73.496;2022-12-29T15:56:05;34.15;;;19.90;;
59907;SDS011;61804;54.926;73.496;2022-12-29T15:58:39;19.65;;;8.43;;
59907;SDS011;61804;54.926;73.496;2022-12-29T16:01:19;19.38;;;9.13;;
59907;SDS011;61804;54.926;73.496;2022-12-29T16:03:48;30.77;;;10.23;;
59907;SDS011;61804;54.926;73.496;2022-12-29T16:06:32;38.03;;;11.30;;
59907;SDS011;61804;54.926;73.496;2022-12-29T16:11:35;42.97;;;7.80;;
59907;SDS011;61804;54.926;73.496;2022-12-29T16:14:20;31.95;;;9.48;;
59907;SDS011;61804;54.926;73.496;2022-12-29T16:17:00;39.40;;;12.55;;
59907;SDS011;61804;54.926;73.496;2022-12-29T16:19:39;50.33;;;9.45;;
59907;SDS011;61804;54.926;73.496;2022-12-29T16:22:11;70.35;;;16.70;;
59907;SDS011;61804;54.926;73.496;2022-12-29T16:24:39;31.05;;;9.82;;
59907;SDS011;61804;54.926;73.496;2022-12-29T16:27:09;13.43;;;7.03;;
59907;SDS011;61804;54.926;73.496;2022-12-29T16:29:41;32.20;;;11.85;;
59907;SDS011;61804;54.926;73.496;2022-12-29T16:32:24;47.63;;;14.95;;
59907;SDS011;61804;54.926;73.496;2022-12-29T16:40:54;19.38;;;10.35;;
59907;SDS011;61804;54.926;73.496;2022-12-29T16:43:28;14.75;;;10.63;;
59907;SDS011;61804;54.926;73.496;2022-12-29T16:48:28;25.77;;;8.95;;
59907;SDS011;61804;54.926;73.496;2022-12-29T16:51:57;12.63;;;5.75;;
59907;SDS011;61804;54.926;73.496;2022-12-29T16:54:00;118.13;;;13.45;;
59907;SDS011;61804;54.926;73.496;2022-12-29T16:56:29;20.50;;;12.55;;
59907;SDS011;61804;54.926;73.496;2022-12-29T16:59:16;78.28;;;11.70;;
59907;SDS011;61804;54.926;73.496;2022-12-29T17:01:52;48.13;;;10.75;;
59907;SDS011;61804;54.926;73.496;2022-12-29T17:04:20;67.68;;;10.23;;
59907;SDS011;61804;54.926;73.496;2022-12-29T17:06:49;33.33;;;12.07;;
59907;SDS011;61804;54.926;73.496;2022-12-29T17:11:46;15.73;;;9.07;;
59907;SDS011;61804;54.926;73.496;2022-12-29T17:14:44;44.40;;;15.25;;
59907;SDS011;61804;54.926;73.496;2022-12-29T17:17:17;57.97;;;15.05;;
59907;SDS011;61804;54.926;73.496;2022-12-29T17:19:53;54.60;;;16.20;;
59907;SDS011;61804;54.926;73.496;2022-12-29T17:22:23;46.25;;;15.57;;
59907;SDS011;61804;54.926;73.496;2022-12-29T17:24:55;163.25;;;20.00;;
59907;SDS011;61804;54.926;73.496;2022-12-29T17:30:04;73.32;;;37.05;;
59907;SDS011;61804;54.926;73.496;2022-12-29T17:32:34;47.95;;;18.77;;
59907;SDS011;61804;54.926;73.496;2022-12-29T17:35:03;42.83;;;21.33;;
59907;SDS011;61804;54.926;73.496;2022-12-29T17:37:41;35.70;;;11.13;;
59907;SDS011;61804;54.926;73.496;2022-12-29T17:40:12;36.78;;;21.75;;
59907;SDS011;61804;54.926;73.496;2022-12-29T17:42:49;38.30;;;11.45;;
59907;SDS011;61804;54.926;73.496;2022-12-29T17:45:20;45.33;;;6.97;;
59907;SDS011;61804;54.926;73.496;2022-12-29T17:47:47;20.42;;;9.07;;
59907;SDS011;61804;54.926;73.496;2022-12-29T17:50:25;13.65;;;12.27;;
59907;SDS011;61804;54.926;73.496;2022-12-29T17:52:54;26.58;;;10.15;;
59907;SDS011;61804;54.926;73.496;2022-12-29T17:55:28;56.92;;;11.80;;